sensor_id;sensor_type;location;lat;lon;timestamp;P1;durP1;ratioP1;P2;durP2;ratioP2
1879;SDS011;49285;49.002;8.390;2023-03-23T00:01:09;3.80;;;2.20;;
1879;SDS011;49285;49.002;8.390;2023-03-23T00:03:37;2.80;;;2.60;;
1879;SDS011;49285;49.002;8.390;2023-03-23T00:06:04;3.40;;;2.83;;
1879;SDS011;49285;49.002;8.390;2023-03-23T00:08:38;2.70;;;2.33;;
1879;SDS011;49285;49.002;8.390;2023-03-23T00:11:10;2.63;;;2.30;;
1879;SDS011;49285;49.002;8.390;2023-03-23T00:13:44;3.10;;;2.80;;
1879;SDS011;49285;49.002;8.390;2023-03-23T00:16:16;2.70;;;2.50;;
1879;SDS011;49285;49.002;8.390;2023-03-23T00:18:49;2.70;;;2.40;;
1879;SDS011;49285;49.002;8.390;2023-03-23T00:21:19;3.23;;;2.93;;
1879;SDS011;49285;49.002;8.390;2023-03-23T00:23:50;2.77;;;2.50;;
1879;SDS011;49285;49.002;8.390;2023-03-23T00:26:16;3.63;;;2.30;;
1879;SDS011;49285;49.002;8.390;2023-03-23T00:28:42;2.70;;;2.37;;
1879;SDS011;49285;49.002;8.390;2023-03-23T00:31:08;3.00;;;2.70;;
1879;SDS011;49285;49.002;8.390;2023-03-23T00:33:37;2.93;;;2.40;;
1879;SDS011;49285;49.002;8.390;2023-03-23T00:36:06;4.13;;;2.37;;
1879;SDS011;49285;49.002;8.390;2023-03-23T00:38:34;2.80;;;2.33;;
1879;SDS011;49285;49.002;8.390;2023-03-23T00:41:00;2.63;;;1.97;;
1879;SDS011;49285;49.002;8.390;2023-03-23T00:43:29;2.63;;;2.43;;
1879;SDS011;49285;49.002;8.390;2023-03-23T00:45:55;4.60;;;2.70;;
1879;SDS011;49285;49.002;8.390;2023-03-23T00:48:22;2.57;;;2.37;;
1879;SDS011;49285;49.002;8.390;2023-03-23T00:50:49;2.43;;;2.23;;
1879;SDS011;49285;49.002;8.390;2023-03-23T00:53:16;6.70;;;2.40;;
1879;SDS011;49285;49.002;8.390;2023-03-23T00:55:43;2.10;;;1.90;;
1879;SDS011;49285;49.002;8.390;2023-03-23T00:58:10;2.50;;;2.30;;
1879;SDS011;49285;49.002;8.390;2023-03-23T01:00:36;4.17;;;2.77;;
1879;SDS011;49285;49.002;8.390;2023-03-23T01:03:03;5.60;;;2.60;;
1879;SDS011;49285;49.002;8.390;2023-03-23T01:05:29;3.00;;;2.53;;
1879;SDS011;49285;49.002;8.390;2023-03-23T01:07:58;2.80;;;2.50;;
1879;SDS011;49285;49.002;8.390;2023-03-23T01:10:24;4.03;;;2.50;;
1879;SDS011;49285;49.002;8.390;2023-03-23T01:12:51;3.20;;;2.60;;
1879;SDS011;49285;49.002;8.390;2023-03-23T01:15:18;3.40;;;2.43;;
1879;SDS011;49285;49.002;8.390;2023-03-23T01:17:44;4.00;;;2.93;;
1879;SDS011;49285;49.002;8.390;2023-03-23T01:20:14;3.10;;;2.80;;
1879;SDS011;49285;49.002;8.390;2023-03-23T01:22:40;3.17;;;2.70;;
1879;SDS011;49285;49.002;8.390;2023-03-23T01:25:07;2.80;;;2.60;;
1879;SDS011;49285;49.002;8.390;2023-03-23T01:27:34;3.57;;;2.70;;
1879;SDS011;49285;49.002;8.390;2023-03-23T01:30:00;3.20;;;2.77;;
1879;SDS011;49285;49.002;8.390;2023-03-23T01:32:26;3.77;;;2.30;;
1879;SDS011;49285;49.002;8.390;2023-03-23T01:34:51;3.17;;;2.60;;
1879;SDS011;49285;49.002;8.390;2023-03-23T01:37:17;2.50;;;2.30;;
1879;SDS011;49285;49.002;8.390;2023-03-23T01:39:44;2.57;;;2.37;;
1879;SDS011;49285;49.002;8.390;2023-03-23T01:42:10;2.97;;;2.40;;
1879;SDS011;49285;49.002;8.390;2023-03-23T01:47:02;2.90;;;2.70;;
1879;SDS011;49285;49.002;8.390;2023-03-23T01:49:29;2.90;;;2.50;;
1879;SDS011;49285;49.002;8.390;2023-03-23T01:51:59;3.17;;;2.57;;
1879;SDS011;49285;49.002;8.390;2023-03-23T01:54:28;2.60;;;2.40;;
1879;SDS011;49285;49.002;8.390;2023-03-23T01:57:02;3.00;;;2.67;;
1879;SDS011;49285;49.002;8.390;2023-03-23T01:59:31;3.33;;;2.47;;
1879;SDS011;49285;49.002;8.390;2023-03-23T02:01:58;3.53;;;2.80;;
1879;SDS011;49285;49.002;8.390;2023-03-23T02:04:25;3.33;;;2.90;;
1879;SDS011;49285;49.002;8.390;2023-03-23T02:06:52;3.53;;;2.70;;
1879;SDS011;49285;49.002;8.390;2023-03-23T02:09:19;3.87;;;2.37;;
1879;SDS011;49285;49.002;8.390;2023-03-23T02:11:46;5.90;;;2.67;;
1879;SDS011;49285;49.002;8.390;2023-03-23T02:14:13;4.37;;;2.80;;
1879;SDS011;49285;49.002;8.390;2023-03-23T02:16:40;5.60;;;2.87;;
1879;SDS011;49285;49.002;8.390;2023-03-23T02:19:24;3.03;;;2.73;;
1879;SDS011;49285;49.002;8.390;2023-03-23T02:36:24;3.70;;;3.10;;
1879;SDS011;49285;49.002;8.390;2023-03-23T02:39:00;4.60;;;2.50;;
1879;SDS011;49285;49.002;8.390;2023-03-23T02:41:30;4.27;;;3.00;;
1879;SDS011;49285;49.002;8.390;2023-03-23T02:43:59;2.90;;;2.60;;
1879;SDS011;49285;49.002;8.390;2023-03-23T02:46:28;3.90;;;2.67;;
1879;SDS011;49285;49.002;8.390;2023-03-23T02:48:55;2.73;;;2.53;;
1879;SDS011;49285;49.002;8.390;2023-03-23T02:51:24;3.73;;;3.03;;
1879;SDS011;49285;49.002;8.390;2023-03-23T02:53:51;3.80;;;3.40;;
1879;SDS011;49285;49.002;8.390;2023-03-23T02:56:19;3.30;;;2.93;;
1879;SDS011;49285;49.002;8.390;2023-03-23T02:58:48;2.90;;;2.60;;
1879;SDS011;49285;49.002;8.390;2023-03-23T03:01:14;3.67;;;2.63;;
1879;SDS011;49285;49.002;8.390;2023-03-23T03:04:12;3.17;;;2.87;;
1879;SDS011;49285;49.002;8.390;2023-03-23T03:06:54;5.70;;;3.00;;
1879;SDS011;49285;49.002;8.390;2023-03-23T03:09:47;3.03;;;2.73;;
1879;SDS011;49285;49.002;8.390;2023-03-23T03:12:20;3.80;;;2.50;;
1879;SDS011;49285;49.002;8.390;2023-03-23T03:15:19;6.80;;;3.30;;
1879;SDS011;49285;49.002;8.390;2023-03-23T03:18:28;3.00;;;2.70;;
1879;SDS011;49285;49.002;8.390;2023-03-23T03:21:10;2.90;;;2.50;;
1879;SDS011;49285;49.002;8.390;2023-03-23T03:23:40;3.70;;;2.80;;
1879;SDS011;49285;49.002;8.390;2023-03-23T03:26:08;2.87;;;2.63;;
1879;SDS011;49285;49.002;8.390;2023-03-23T03:28:37;3.00;;;2.80;;
1879;SDS011;49285;49.002;8.390;2023-03-23T03:31:03;3.07;;;2.77;;
1879;SDS011;49285;49.002;8.390;2023-03-23T03:33:30;4.13;;;2.70;;
1879;SDS011;49285;49.002;8.390;2023-03-23T03:35:59;2.97;;;2.67;;
1879;SDS011;49285;49.002;8.390;2023-03-23T03:38:27;3.70;;;2.87;;
1879;SDS011;49285;49.002;8.390;2023-03-23T03:40:53;4.00;;;3.03;;
1879;SDS011;49285;49.002;8.390;2023-03-23T03:43:19;3.60;;;2.43;;
1879;SDS011;49285;49.002;8.390;2023-03-23T03:45:45;3.37;;;2.80;;
1879;SDS011;49285;49.002;8.390;2023-03-23T03:48:11;3.87;;;2.87;;
1879;SDS011;49285;49.002;8.390;2023-03-23T03:50:37;6.07;;;3.30;;
1879;SDS011;49285;49.002;8.390;2023-03-23T03:53:02;4.00;;;2.83;;
1879;SDS011;49285;49.002;8.390;2023-03-23T03:55:29;3.03;;;2.73;;
1879;SDS011;49285;49.002;8.390;2023-03-23T03:58:00;5.03;;;2.77;;
1879;SDS011;49285;49.002;8.390;2023-03-23T04:00:26;2.87;;;2.57;;
1879;SDS011;49285;49.002;8.390;2023-03-23T04:02:51;7.00;;;2.80;;
1879;SDS011;49285;49.002;8.390;2023-03-23T04:05:19;3.17;;;2.67;;
1879;SDS011;49285;49.002;8.390;2023-03-23T04:07:46;4.00;;;2.83;;
1879;SDS011;49285;49.002;8.390;2023-03-23T04:10:14;4.70;;;3.10;;
1879;SDS011;49285;49.002;8.390;2023-03-23T04:12:40;3.27;;;2.97;;
1879;SDS011;49285;49.002;8.390;2023-03-23T04:15:06;5.37;;;2.90;;
1879;SDS011;49285;49.002;8.390;2023-03-23T04:17:32;3.23;;;2.90;;
1879;SDS011;49285;49.002;8.390;2023-03-23T04:19:59;2.80;;;2.60;;
1879;SDS011;49285;49.002;8.390;2023-03-23T04:22:37;3.43;;;2.73;;
1879;SDS011;49285;49.002;8.390;2023-03-23T04:25:03;5.90;;;3.10;;
1879;SDS011;49285;49.002;8.390;2023-03-23T04:27:31;3.10;;;2.80;;
1879;SDS011;49285;49.002;8.390;2023-03-23T04:29:58;2.80;;;2.60;;
1879;SDS011;49285;49.002;8.390;2023-03-23T04:32:26;4.40;;;3.00;;
1879;SDS011;49285;49.002;8.390;2023-03-23T04:34:53;3.20;;;2.90;;
1879;SDS011;49285;49.002;8.390;2023-03-23T04:37:24;3.27;;;2.87;;
1879;SDS011;49285;49.002;8.390;2023-03-23T04:39:53;5.73;;;3.00;;
1879;SDS011;49285;49.002;8.390;2023-03-23T04:42:25;4.37;;;3.33;;
1879;SDS011;49285;49.002;8.390;2023-03-23T04:44:53;3.47;;;3.17;;
1879;SDS011;49285;49.002;8.390;2023-03-23T04:47:19;4.67;;;3.17;;
1879;SDS011;49285;49.002;8.390;2023-03-23T04:49:45;3.93;;;2.93;;
1879;SDS011;49285;49.002;8.390;2023-03-23T04:52:10;3.57;;;3.10;;
1879;SDS011;49285;49.002;8.390;2023-03-23T04:54:36;3.10;;;2.77;;
1879;SDS011;49285;49.002;8.390;2023-03-23T04:57:02;5.13;;;2.87;;
1879;SDS011;49285;49.002;8.390;2023-03-23T04:59:28;3.30;;;3.00;;
1879;SDS011;49285;49.002;8.390;2023-03-23T05:01:55;5.10;;;3.70;;
1879;SDS011;49285;49.002;8.390;2023-03-23T05:04:21;4.00;;;3.30;;
1879;SDS011;49285;49.002;8.390;2023-03-23T05:06:47;3.13;;;2.80;;
1879;SDS011;49285;49.002;8.390;2023-03-23T05:09:13;4.73;;;3.10;;
1879;SDS011;49285;49.002;8.390;2023-03-23T05:11:39;4.77;;;3.43;;
1879;SDS011;49285;49.002;8.390;2023-03-23T05:14:05;3.37;;;3.07;;
1879;SDS011;49285;49.002;8.390;2023-03-23T05:16:30;3.47;;;2.93;;
1879;SDS011;49285;49.002;8.390;2023-03-23T05:18:56;3.57;;;3.27;;
1879;SDS011;49285;49.002;8.390;2023-03-23T05:21:25;3.87;;;3.40;;
1879;SDS011;49285;49.002;8.390;2023-03-23T05:23:51;3.70;;;3.30;;
1879;SDS011;49285;49.002;8.390;2023-03-23T05:26:21;3.90;;;3.37;;
1879;SDS011;49285;49.002;8.390;2023-03-23T05:28:49;3.83;;;3.40;;
1879;SDS011;49285;49.002;8.390;2023-03-23T05:31:17;3.57;;;3.23;;
1879;SDS011;49285;49.002;8.390;2023-03-23T05:33:44;5.40;;;3.47;;
1879;SDS011;49285;49.002;8.390;2023-03-23T05:36:10;3.97;;;3.20;;
1879;SDS011;49285;49.002;8.390;2023-03-23T05:38:38;3.87;;;3.47;;
1879;SDS011;49285;49.002;8.390;2023-03-23T05:41:05;3.37;;;2.80;;
1879;SDS011;49285;49.002;8.390;2023-03-23T05:43:31;5.50;;;3.33;;
1879;SDS011;49285;49.002;8.390;2023-03-23T05:45:57;4.13;;;3.60;;
1879;SDS011;49285;49.002;8.390;2023-03-23T05:48:22;7.23;;;3.93;;
1879;SDS011;49285;49.002;8.390;2023-03-23T05:50:48;5.00;;;3.60;;
1879;SDS011;49285;49.002;8.390;2023-03-23T05:53:13;9.67;;;3.60;;
1879;SDS011;49285;49.002;8.390;2023-03-23T05:55:39;6.70;;;3.57;;
1879;SDS011;49285;49.002;8.390;2023-03-23T05:58:04;7.10;;;3.30;;
1879;SDS011;49285;49.002;8.390;2023-03-23T06:00:30;7.53;;;3.47;;
1879;SDS011;49285;49.002;8.390;2023-03-23T06:02:57;4.30;;;3.50;;
1879;SDS011;49285;49.002;8.390;2023-03-23T06:05:23;3.70;;;3.30;;
1879;SDS011;49285;49.002;8.390;2023-03-23T06:07:50;4.63;;;3.33;;
1879;SDS011;49285;49.002;8.390;2023-03-23T06:10:17;4.57;;;3.60;;
1879;SDS011;49285;49.002;8.390;2023-03-23T06:12:42;3.43;;;3.10;;
1879;SDS011;49285;49.002;8.390;2023-03-23T06:15:09;7.30;;;4.07;;
1879;SDS011;49285;49.002;8.390;2023-03-23T06:17:35;4.13;;;3.50;;
1879;SDS011;49285;49.002;8.390;2023-03-23T06:20:03;3.77;;;3.30;;
1879;SDS011;49285;49.002;8.390;2023-03-23T06:22:32;3.90;;;3.50;;
1879;SDS011;49285;49.002;8.390;2023-03-23T06:24:58;3.40;;;3.10;;
1879;SDS011;49285;49.002;8.390;2023-03-23T06:27:23;4.83;;;3.27;;
1879;SDS011;49285;49.002;8.390;2023-03-23T06:29:49;4.10;;;3.57;;
1879;SDS011;49285;49.002;8.390;2023-03-23T06:32:15;6.20;;;3.20;;
1879;SDS011;49285;49.002;8.390;2023-03-23T06:34:40;3.30;;;3.00;;
1879;SDS011;49285;49.002;8.390;2023-03-23T06:37:09;5.70;;;3.30;;
1879;SDS011;49285;49.002;8.390;2023-03-23T06:39:36;5.57;;;3.40;;
1879;SDS011;49285;49.002;8.390;2023-03-23T06:42:03;5.10;;;4.00;;
1879;SDS011;49285;49.002;8.390;2023-03-23T06:44:29;5.30;;;3.87;;
1879;SDS011;49285;49.002;8.390;2023-03-23T06:46:54;7.17;;;4.23;;
1879;SDS011;49285;49.002;8.390;2023-03-23T06:49:20;6.70;;;3.83;;
1879;SDS011;49285;49.002;8.390;2023-03-23T06:51:46;4.03;;;3.63;;
1879;SDS011;49285;49.002;8.390;2023-03-23T06:54:11;4.00;;;3.33;;
1879;SDS011;49285;49.002;8.390;2023-03-23T06:56:37;11.03;;;4.03;;
1879;SDS011;49285;49.002;8.390;2023-03-23T06:59:02;8.53;;;3.80;;
1879;SDS011;49285;49.002;8.390;2023-03-23T07:01:28;10.00;;;3.93;;
1879;SDS011;49285;49.002;8.390;2023-03-23T07:03:54;5.43;;;3.83;;
1879;SDS011;49285;49.002;8.390;2023-03-23T07:06:20;3.70;;;3.37;;
1879;SDS011;49285;49.002;8.390;2023-03-23T07:08:46;3.50;;;3.20;;
1879;SDS011;49285;49.002;8.390;2023-03-23T07:11:12;4.47;;;3.00;;
1879;SDS011;49285;49.002;8.390;2023-03-23T07:13:38;6.90;;;3.03;;
1879;SDS011;49285;49.002;8.390;2023-03-23T07:16:06;6.33;;;4.30;;
1879;SDS011;49285;49.002;8.390;2023-03-23T07:18:32;3.97;;;3.20;;
1879;SDS011;49285;49.002;8.390;2023-03-23T07:20:58;4.23;;;3.60;;
1879;SDS011;49285;49.002;8.390;2023-03-23T07:23:24;5.80;;;3.50;;
1879;SDS011;49285;49.002;8.390;2023-03-23T07:25:50;8.97;;;3.70;;
1879;SDS011;49285;49.002;8.390;2023-03-23T07:28:16;5.67;;;3.23;;
1879;SDS011;49285;49.002;8.390;2023-03-23T07:30:43;3.80;;;3.33;;
1879;SDS011;49285;49.002;8.390;2023-03-23T07:33:09;4.27;;;3.00;;
1879;SDS011;49285;49.002;8.390;2023-03-23T07:35:35;4.30;;;3.77;;
1879;SDS011;49285;49.002;8.390;2023-03-23T07:38:01;3.60;;;3.23;;
1879;SDS011;49285;49.002;8.390;2023-03-23T07:40:28;4.50;;;3.83;;
1879;SDS011;49285;49.002;8.390;2023-03-23T07:42:58;4.37;;;3.67;;
1879;SDS011;49285;49.002;8.390;2023-03-23T07:45:25;4.40;;;3.37;;
1879;SDS011;49285;49.002;8.390;2023-03-23T07:47:51;4.60;;;3.43;;
1879;SDS011;49285;49.002;8.390;2023-03-23T07:50:18;7.60;;;3.63;;
1879;SDS011;49285;49.002;8.390;2023-03-23T07:52:47;3.67;;;3.20;;
1879;SDS011;49285;49.002;8.390;2023-03-23T07:55:12;6.37;;;3.67;;
1879;SDS011;49285;49.002;8.390;2023-03-23T07:57:42;5.87;;;3.90;;
1879;SDS011;49285;49.002;8.390;2023-03-23T08:00:13;3.77;;;3.37;;
1879;SDS011;49285;49.002;8.390;2023-03-23T08:02:44;6.37;;;3.60;;
1879;SDS011;49285;49.002;8.390;2023-03-23T08:05:10;6.20;;;3.30;;
1879;SDS011;49285;49.002;8.390;2023-03-23T08:07:38;6.87;;;3.77;;
1879;SDS011;49285;49.002;8.390;2023-03-23T08:10:05;5.63;;;3.70;;
1879;SDS011;49285;49.002;8.390;2023-03-23T08:12:35;4.20;;;3.40;;
1879;SDS011;49285;49.002;8.390;2023-03-23T08:15:00;6.83;;;4.00;;
1879;SDS011;49285;49.002;8.390;2023-03-23T08:17:26;3.87;;;3.40;;
1879;SDS011;49285;49.002;8.390;2023-03-23T08:19:52;4.80;;;3.50;;
1879;SDS011;49285;49.002;8.390;2023-03-23T08:22:17;3.30;;;3.00;;
1879;SDS011;49285;49.002;8.390;2023-03-23T08:24:43;4.63;;;2.80;;
1879;SDS011;49285;49.002;8.390;2023-03-23T08:27:08;5.23;;;2.90;;
1879;SDS011;49285;49.002;8.390;2023-03-23T08:29:34;4.77;;;2.93;;
1879;SDS011;49285;49.002;8.390;2023-03-23T08:32:00;4.40;;;3.10;;
1879;SDS011;49285;49.002;8.390;2023-03-23T08:34:28;4.17;;;2.90;;
1879;SDS011;49285;49.002;8.390;2023-03-23T08:36:54;3.73;;;2.80;;
1879;SDS011;49285;49.002;8.390;2023-03-23T08:39:20;5.43;;;2.90;;
1879;SDS011;49285;49.002;8.390;2023-03-23T08:41:48;3.40;;;2.80;;
1879;SDS011;49285;49.002;8.390;2023-03-23T08:44:14;4.83;;;3.10;;
1879;SDS011;49285;49.002;8.390;2023-03-23T08:46:40;2.97;;;2.67;;
1879;SDS011;49285;49.002;8.390;2023-03-23T08:49:06;7.67;;;5.30;;
1879;SDS011;49285;49.002;8.390;2023-03-23T08:51:31;4.33;;;2.80;;
1879;SDS011;49285;49.002;8.390;2023-03-23T08:53:57;4.30;;;3.23;;
1879;SDS011;49285;49.002;8.390;2023-03-23T08:56:23;3.03;;;2.70;;
1879;SDS011;49285;49.002;8.390;2023-03-23T08:58:49;6.53;;;3.10;;
1879;SDS011;49285;49.002;8.390;2023-03-23T09:01:14;3.90;;;3.20;;
1879;SDS011;49285;49.002;8.390;2023-03-23T09:03:40;3.00;;;2.60;;
1879;SDS011;49285;49.002;8.390;2023-03-23T09:06:06;3.80;;;2.53;;
1879;SDS011;49285;49.002;8.390;2023-03-23T09:08:34;2.70;;;2.03;;
1879;SDS011;49285;49.002;8.390;2023-03-23T09:11:04;4.77;;;2.83;;
1879;SDS011;49285;49.002;8.390;2023-03-23T09:13:31;5.33;;;2.80;;
1879;SDS011;49285;49.002;8.390;2023-03-23T09:15:57;3.00;;;2.60;;
1879;SDS011;49285;49.002;8.390;2023-03-23T09:18:23;3.00;;;2.70;;
1879;SDS011;49285;49.002;8.390;2023-03-23T09:20:49;5.77;;;2.50;;
1879;SDS011;49285;49.002;8.390;2023-03-23T09:23:16;3.53;;;2.70;;
1879;SDS011;49285;49.002;8.390;2023-03-23T09:25:41;3.80;;;2.50;;
1879;SDS011;49285;49.002;8.390;2023-03-23T09:28:08;5.83;;;3.03;;
1879;SDS011;49285;49.002;8.390;2023-03-23T09:30:35;2.80;;;2.50;;
1879;SDS011;49285;49.002;8.390;2023-03-23T09:33:03;4.13;;;2.50;;
1879;SDS011;49285;49.002;8.390;2023-03-23T09:35:29;4.47;;;2.60;;
1879;SDS011;49285;49.002;8.390;2023-03-23T09:37:56;3.10;;;2.73;;
1879;SDS011;49285;49.002;8.390;2023-03-23T09:43:28;3.43;;;2.90;;
1879;SDS011;49285;49.002;8.390;2023-03-23T09:49:17;3.17;;;2.30;;
1879;SDS011;49285;49.002;8.390;2023-03-23T09:51:50;3.83;;;2.20;;
1879;SDS011;49285;49.002;8.390;2023-03-23T09:56:45;3.50;;;2.50;;
1879;SDS011;49285;49.002;8.390;2023-03-23T10:02:16;3.93;;;2.50;;
1879;SDS011;49285;49.002;8.390;2023-03-23T10:04:46;2.97;;;2.60;;
1879;SDS011;49285;49.002;8.390;2023-03-23T10:07:18;3.90;;;3.20;;
1879;SDS011;49285;49.002;8.390;2023-03-23T10:09:52;3.27;;;2.40;;
1879;SDS011;49285;49.002;8.390;2023-03-23T10:12:32;3.03;;;2.00;;
1879;SDS011;49285;49.002;8.390;2023-03-23T10:15:20;3.23;;;2.10;;
1879;SDS011;49285;49.002;8.390;2023-03-23T10:28:57;3.00;;;2.60;;
1879;SDS011;49285;49.002;8.390;2023-03-23T10:31:34;6.07;;;2.37;;
1879;SDS011;49285;49.002;8.390;2023-03-23T10:34:04;5.70;;;2.33;;
1879;SDS011;49285;49.002;8.390;2023-03-23T10:36:55;2.60;;;2.40;;
1879;SDS011;49285;49.002;8.390;2023-03-23T10:39:23;3.03;;;2.47;;
1879;SDS011;49285;49.002;8.390;2023-03-23T10:41:53;3.57;;;2.30;;
1879;SDS011;49285;49.002;8.390;2023-03-23T10:44:20;3.00;;;2.70;;
1879;SDS011;49285;49.002;8.390;2023-03-23T10:46:57;3.50;;;2.30;;
1879;SDS011;49285;49.002;8.390;2023-03-23T10:49:25;2.83;;;2.30;;
1879;SDS011;49285;49.002;8.390;2023-03-23T10:52:13;3.30;;;2.50;;
1879;SDS011;49285;49.002;8.390;2023-03-23T10:54:51;4.17;;;2.70;;
1879;SDS011;49285;49.002;8.390;2023-03-23T10:57:41;2.60;;;2.40;;
1879;SDS011;49285;49.002;8.390;2023-03-23T11:00:23;3.60;;;2.57;;
1879;SDS011;49285;49.002;8.390;2023-03-23T11:05:26;3.93;;;3.00;;
1879;SDS011;49285;49.002;8.390;2023-03-23T11:08:10;4.20;;;2.73;;
1879;SDS011;49285;49.002;8.390;2023-03-23T11:10:49;4.27;;;3.27;;
1879;SDS011;49285;49.002;8.390;2023-03-23T11:13:15;3.63;;;2.70;;
1879;SDS011;49285;49.002;8.390;2023-03-23T11:15:42;2.90;;;2.50;;
1879;SDS011;49285;49.002;8.390;2023-03-23T11:18:24;5.00;;;2.90;;
1879;SDS011;49285;49.002;8.390;2023-03-23T11:20:55;3.47;;;2.57;;
1879;SDS011;49285;49.002;8.390;2023-03-23T11:23:24;4.23;;;2.80;;
1879;SDS011;49285;49.002;8.390;2023-03-23T11:28:29;3.30;;;2.70;;
1879;SDS011;49285;49.002;8.390;2023-03-23T11:31:00;2.40;;;2.20;;
1879;SDS011;49285;49.002;8.390;2023-03-23T11:33:29;3.63;;;2.70;;
1879;SDS011;49285;49.002;8.390;2023-03-23T11:36:00;3.03;;;2.40;;
1879;SDS011;49285;49.002;8.390;2023-03-23T11:38:25;4.53;;;3.00;;
1879;SDS011;49285;49.002;8.390;2023-03-23T11:40:52;4.93;;;2.70;;
1879;SDS011;49285;49.002;8.390;2023-03-23T11:43:19;2.67;;;2.20;;
1879;SDS011;49285;49.002;8.390;2023-03-23T11:48:55;5.40;;;2.57;;
1879;SDS011;49285;49.002;8.390;2023-03-23T11:51:45;3.40;;;2.50;;
1879;SDS011;49285;49.002;8.390;2023-03-23T11:56:59;3.03;;;2.53;;
1879;SDS011;49285;49.002;8.390;2023-03-23T11:59:28;5.60;;;2.70;;
1879;SDS011;49285;49.002;8.390;2023-03-23T12:10:57;2.50;;;2.13;;
1879;SDS011;49285;49.002;8.390;2023-03-23T12:24:41;4.50;;;2.23;;
1879;SDS011;49285;49.002;8.390;2023-03-23T12:27:27;5.23;;;2.90;;
1879;SDS011;49285;49.002;8.390;2023-03-23T12:30:18;3.77;;;2.37;;
1879;SDS011;49285;49.002;8.390;2023-03-23T12:36:07;3.07;;;2.40;;
1879;SDS011;49285;49.002;8.390;2023-03-23T12:38:41;3.00;;;2.33;;
1879;SDS011;49285;49.002;8.390;2023-03-23T12:41:27;4.53;;;2.33;;
1879;SDS011;49285;49.002;8.390;2023-03-23T12:44:05;5.67;;;2.37;;
1879;SDS011;49285;49.002;8.390;2023-03-23T12:47:22;3.47;;;2.30;;
1879;SDS011;49285;49.002;8.390;2023-03-23T12:49:39;3.53;;;2.40;;
1879;SDS011;49285;49.002;8.390;2023-03-23T12:52:12;3.50;;;2.30;;
1879;SDS011;49285;49.002;8.390;2023-03-23T12:54:53;2.93;;;2.27;;
1879;SDS011;49285;49.002;8.390;2023-03-23T12:57:31;2.80;;;2.20;;
1879;SDS011;49285;49.002;8.390;2023-03-23T13:00:24;2.50;;;2.30;;
1879;SDS011;49285;49.002;8.390;2023-03-23T13:03:11;2.60;;;2.10;;
1879;SDS011;49285;49.002;8.390;2023-03-23T13:05:45;2.43;;;2.03;;
1879;SDS011;49285;49.002;8.390;2023-03-23T13:08:27;3.07;;;2.53;;
1879;SDS011;49285;49.002;8.390;2023-03-23T13:11:00;2.67;;;2.37;;
1879;SDS011;49285;49.002;8.390;2023-03-23T13:13:43;2.73;;;2.37;;
1879;SDS011;49285;49.002;8.390;2023-03-23T13:19:24;2.57;;;2.37;;
1879;SDS011;49285;49.002;8.390;2023-03-23T13:21:57;2.87;;;2.53;;
1879;SDS011;49285;49.002;8.390;2023-03-23T13:24:31;3.43;;;2.30;;
1879;SDS011;49285;49.002;8.390;2023-03-23T13:27:00;3.80;;;2.60;;
1879;SDS011;49285;49.002;8.390;2023-03-23T13:29:26;3.50;;;3.00;;
1879;SDS011;49285;49.002;8.390;2023-03-23T13:32:11;5.20;;;2.60;;
1879;SDS011;49285;49.002;8.390;2023-03-23T13:34:41;7.63;;;2.60;;
1879;SDS011;49285;49.002;8.390;2023-03-23T13:37:10;3.40;;;2.30;;
1879;SDS011;49285;49.002;8.390;2023-03-23T13:39:51;2.63;;;2.20;;
1879;SDS011;49285;49.002;8.390;2023-03-23T13:42:25;3.20;;;2.90;;
1879;SDS011;49285;49.002;8.390;2023-03-23T13:49:50;2.93;;;2.57;;
1879;SDS011;49285;49.002;8.390;2023-03-23T13:52:24;3.70;;;2.70;;
1879;SDS011;49285;49.002;8.390;2023-03-23T14:00:33;3.87;;;3.17;;
1879;SDS011;49285;49.002;8.390;2023-03-23T14:03:13;3.57;;;3.10;;
1879;SDS011;49285;49.002;8.390;2023-03-23T14:05:59;3.47;;;3.10;;
1879;SDS011;49285;49.002;8.390;2023-03-23T14:10:55;3.40;;;3.07;;
1879;SDS011;49285;49.002;8.390;2023-03-23T14:18:59;4.00;;;3.30;;
1879;SDS011;49285;49.002;8.390;2023-03-23T14:21:59;3.20;;;2.90;;
1879;SDS011;49285;49.002;8.390;2023-03-23T14:27:01;4.00;;;3.27;;
1879;SDS011;49285;49.002;8.390;2023-03-23T14:29:34;5.47;;;3.00;;
1879;SDS011;49285;49.002;8.390;2023-03-23T14:32:00;5.13;;;2.93;;
1879;SDS011;49285;49.002;8.390;2023-03-23T14:34:26;3.73;;;3.20;;
1879;SDS011;49285;49.002;8.390;2023-03-23T14:36:56;3.53;;;3.13;;
1879;SDS011;49285;49.002;8.390;2023-03-23T14:39:27;3.60;;;2.93;;
1879;SDS011;49285;49.002;8.390;2023-03-23T14:42:04;3.87;;;3.47;;
1879;SDS011;49285;49.002;8.390;2023-03-23T14:44:41;3.40;;;2.80;;
1879;SDS011;49285;49.002;8.390;2023-03-23T14:47:19;4.10;;;3.70;;
1879;SDS011;49285;49.002;8.390;2023-03-23T14:50:05;4.23;;;3.37;;
1879;SDS011;49285;49.002;8.390;2023-03-23T14:52:43;3.70;;;3.30;;
1879;SDS011;49285;49.002;8.390;2023-03-23T14:55:17;4.27;;;3.13;;
1879;SDS011;49285;49.002;8.390;2023-03-23T14:57:44;3.83;;;3.10;;
1879;SDS011;49285;49.002;8.390;2023-03-23T15:00:24;3.80;;;3.07;;
1879;SDS011;49285;49.002;8.390;2023-03-23T15:02:58;4.53;;;3.07;;
1879;SDS011;49285;49.002;8.390;2023-03-23T15:05:27;4.10;;;3.37;;
1879;SDS011;49285;49.002;8.390;2023-03-23T15:08:00;9.50;;;3.87;;
1879;SDS011;49285;49.002;8.390;2023-03-23T15:10:28;4.30;;;3.77;;
1879;SDS011;49285;49.002;8.390;2023-03-23T15:12:54;4.20;;;3.30;;
1879;SDS011;49285;49.002;8.390;2023-03-23T15:15:26;8.03;;;3.17;;
1879;SDS011;49285;49.002;8.390;2023-03-23T15:17:57;3.80;;;3.30;;
1879;SDS011;49285;49.002;8.390;2023-03-23T15:20:46;4.20;;;3.27;;
1879;SDS011;49285;49.002;8.390;2023-03-23T15:23:17;3.67;;;3.10;;
1879;SDS011;49285;49.002;8.390;2023-03-23T15:25:52;4.63;;;3.33;;
1879;SDS011;49285;49.002;8.390;2023-03-23T15:28:21;3.90;;;3.43;;
1879;SDS011;49285;49.002;8.390;2023-03-23T15:30:54;3.73;;;3.30;;
1879;SDS011;49285;49.002;8.390;2023-03-23T15:33:22;4.60;;;3.03;;
1879;SDS011;49285;49.002;8.390;2023-03-23T15:35:53;5.30;;;3.63;;
1879;SDS011;49285;49.002;8.390;2023-03-23T15:38:24;4.00;;;3.23;;
1879;SDS011;49285;49.002;8.390;2023-03-23T15:40:52;5.20;;;3.97;;
1879;SDS011;49285;49.002;8.390;2023-03-23T15:48:28;4.43;;;4.03;;
1879;SDS011;49285;49.002;8.390;2023-03-23T15:50:55;4.60;;;3.00;;
1879;SDS011;49285;49.002;8.390;2023-03-23T15:53:31;3.43;;;2.90;;
1879;SDS011;49285;49.002;8.390;2023-03-23T15:55:58;6.10;;;3.97;;
1879;SDS011;49285;49.002;8.390;2023-03-23T15:58:26;4.03;;;3.60;;
1879;SDS011;49285;49.002;8.390;2023-03-23T16:00:52;4.70;;;3.23;;
1879;SDS011;49285;49.002;8.390;2023-03-23T16:03:20;4.03;;;3.47;;
1879;SDS011;49285;49.002;8.390;2023-03-23T16:05:51;6.53;;;3.67;;
1879;SDS011;49285;49.002;8.390;2023-03-23T16:08:18;6.33;;;3.90;;
1879;SDS011;49285;49.002;8.390;2023-03-23T16:10:43;3.70;;;3.30;;
1879;SDS011;49285;49.002;8.390;2023-03-23T16:13:09;4.80;;;3.77;;
1879;SDS011;49285;49.002;8.390;2023-03-23T16:15:35;5.27;;;3.63;;
1879;SDS011;49285;49.002;8.390;2023-03-23T16:18:01;3.70;;;3.40;;
1879;SDS011;49285;49.002;8.390;2023-03-23T16:20:27;4.97;;;4.07;;
1879;SDS011;49285;49.002;8.390;2023-03-23T16:22:54;3.70;;;3.40;;
1879;SDS011;49285;49.002;8.390;2023-03-23T16:25:20;4.83;;;4.00;;
1879;SDS011;49285;49.002;8.390;2023-03-23T16:27:45;4.00;;;3.60;;
1879;SDS011;49285;49.002;8.390;2023-03-23T16:32:48;5.00;;;3.60;;
1879;SDS011;49285;49.002;8.390;2023-03-23T16:35:15;7.70;;;4.00;;
1879;SDS011;49285;49.002;8.390;2023-03-23T16:37:47;9.80;;;6.57;;
1879;SDS011;49285;49.002;8.390;2023-03-23T16:40:15;5.87;;;5.10;;
1879;SDS011;49285;49.002;8.390;2023-03-23T16:42:42;5.47;;;4.70;;
1879;SDS011;49285;49.002;8.390;2023-03-23T16:45:08;5.70;;;4.27;;
1879;SDS011;49285;49.002;8.390;2023-03-23T16:47:35;4.90;;;4.23;;
1879;SDS011;49285;49.002;8.390;2023-03-23T16:50:01;5.80;;;4.20;;
1879;SDS011;49285;49.002;8.390;2023-03-23T16:52:30;4.97;;;4.20;;
1879;SDS011;49285;49.002;8.390;2023-03-23T16:54:56;4.23;;;3.83;;
1879;SDS011;49285;49.002;8.390;2023-03-23T16:57:22;4.80;;;4.30;;
1879;SDS011;49285;49.002;8.390;2023-03-23T16:59:47;5.50;;;4.20;;
1879;SDS011;49285;49.002;8.390;2023-03-23T17:02:13;5.67;;;4.17;;